CYFBBGGH

Guest
Details From CYFB - Iqaluit
To BGGH - Nuuk
Flight Number -
Tags generated
Created
Modified
Stats Distance 454 nm / 840 km
Max Altitude 35,000 ft / 10,668 m
Waypoints 6
Social Downloads 2
Likes 0
Share VATSIM

Download

Looking for another format? Having issues loading an existing format? Contact us
Advertisement - Login to hide

Notes

Basic altitude profile: - Ascent Rate: 2500ft/min - Ascent Speed: 250kts - Cruise Altitude: 35000ft - Cruise Speed: 420kts - Descent Rate: 1500ft/min - Descent Speed: 250kts Options: - Use NATs: yes - Use PACOTS: yes - Use low airways: yes - Use high airways: yes

Route

CYFB RUDGA 6400N06000W 6400N05500W KU BGGH

ID Type Via Altitude Latitude Longitude Leg Dist Tot Dist Heading (true) Name
O CYFB APT - 0 ft / 0 m 63.75657˚ -68.55606˚ - 0 nm - Iqaluit
RUDGA FIX - 35,000 ft / 10,668 m 64.33333˚ -65.00000˚ 99 nm 99 nm 68° / 71° -
6400N06000W LATLON - 35,000 ft / 10,668 m 64.00000˚ -60.00000˚ 132 nm 232 nm 96° / 101° -
6400N05500W LATLON - 19,300 ft / 5,883 m 64.00000˚ -55.00000˚ 131 nm 363 nm 88° / 92° -
KU NDB - 2,400 ft / 732 m 64.07000˚ -52.01306˚ 78 nm 442 nm 86° / 88° KOOK ISLANDS NDB
O BGGH APT - 0 ft / 0 m 64.19302˚ -51.67645˚ 11 nm 453 nm 50° / 50° Nuuk

Altitude Profile

Advertisement - Login to hide

Weather


0- 5 10 15 20 25 30 35+ Temperature / ° C

Clouds and Precipitation
Forecast for 2017-12-12 18:00 UTC. Updated an hour ago

Ground ~20,000 ft ~40,000 ft Winds

CYFB

Details ICAO CYFB (YFB)
Name Iqaluit
Region Canada
Timezone America/Iqaluit (UTC-5.0)
Stats Elevation 110 ft / 34 m (AMSL)
Location 63.756565° -68.556058°
Runways 1
Magnetic Variation 27.545° W

METAR

CYFB 121800Z 33011KT 5SM -SN DRSN OVC059 M15/M19 A2959 RMK SN2SC6 SLP028

Decode

TAF

TAF CYFB 121738Z 1218/1318 33010KT P6SM OVC050 TEMPO 1218/1224 VRB03KT 4SM -SN BKN020 OVC050 FM130000 VRB03KT P6SM SCT020 BKN050 RMK NXT FCST BY 130000Z

Decode

Departure Runways

ID Width Length Bearing (true) Bearing (mag) Surface Threshold Offset Overrun Length
17 200 ft / 61 m 8,605 ft / 2,623 m 135.58° 163.12° Asphalt 0 ft / 0 m 210 ft / 64 m
35 200 ft / 61 m 8,605 ft / 2,623 m 315.62° 343.16° Asphalt 0 ft / 0 m 243 ft / 74 m

BGGH

Details ICAO BGGH (GOH)
Name Nuuk
Region Greenland
Timezone America/Godthab (UTC-3.0)
Stats Elevation 283 ft / 86 m (AMSL)
Location 64.193021° -51.676454°
Runways 1
Magnetic Variation 27.021° W

METAR

BGGH 121750Z 29011KT 2000 SN DRSN BKN007 OVC020 M04/M04 Q0988

Decode

TAF

Not found

Destination Runways

ID Width Length Bearing (true) Bearing (mag) Surface Threshold Offset Overrun Length
05 98 ft / 30 m 3,113 ft / 949 m 18.44° 45.46° Asphalt 0 ft / 0 m 0 ft / 0 m
23 98 ft / 30 m 3,113 ft / 949 m 198.44° 225.46° Asphalt 0 ft / 0 m 0 ft / 0 m

Popular Alternatives